createdAt,value
2022-12-18T00:00:06.833Z,66.35
2022-12-18T00:05:10.017Z,59.05
2022-12-18T00:10:15.485Z,55.16
2022-12-18T00:15:18.421Z,59.70
2022-12-18T00:20:26.537Z,66.62
2022-12-18T00:25:29.432Z,55.14
2022-12-18T00:30:32.257Z,56.87
2022-12-18T00:35:35.033Z,62.93
2022-12-18T00:40:37.820Z,65.92
2022-12-18T00:45:40.689Z,54.89
2022-12-18T00:50:43.576Z,57.80
2022-12-18T00:55:47.027Z,59.90
2022-12-18T01:00:49.894Z,58.84
2022-12-18T01:05:52.827Z,69.73
2022-12-18T01:10:55.610Z,63.20
2022-12-18T01:15:58.457Z,52.81
2022-12-18T01:21:01.493Z,56.18
2022-12-18T01:26:15.554Z,59.71
2022-12-18T01:31:20.535Z,67.46
2022-12-18T01:36:25.222Z,57.38
2022-12-18T01:41:52.348Z,54.90
2022-12-18T01:46:55.147Z,58.56
2022-12-18T01:51:57.969Z,68.16
2022-12-18T01:57:02.096Z,60.66
2022-12-18T02:02:05.050Z,55.13
2022-12-18T02:07:19.970Z,59.34
2022-12-18T02:12:25.687Z,67.16
2022-12-18T02:17:36.407Z,62.40
2022-12-18T02:22:45.964Z,52.69
2022-12-18T02:27:51.986Z,56.57
2022-12-18T02:32:57.336Z,58.91
2022-12-18T02:38:01.336Z,66.54
2022-12-18T02:43:09.720Z,60.33
2022-12-18T02:48:12.569Z,55.27
2022-12-18T02:53:43.664Z,58.43
2022-12-18T02:59:31.717Z,62.30
2022-12-18T03:05:05.189Z,66.76
2022-12-18T03:10:12.798Z,54.77
2022-12-18T03:15:24.339Z,57.70
2022-12-18T03:20:30.346Z,60.42
2022-12-18T03:25:35.840Z,68.00
2022-12-18T03:30:42.042Z,59.03
2022-12-18T03:35:45.240Z,54.78
2022-12-18T03:40:51.133Z,58.69
2022-12-18T03:46:06.503Z,67.99
2022-12-18T03:51:22.924Z,58.75
2022-12-18T03:56:30.852Z,53.89
2022-12-18T04:01:38.719Z,57.67
2022-12-18T04:06:44.661Z,60.74
2022-12-18T04:11:48.699Z,69.36
2022-12-18T04:16:51.461Z,60.93
2022-12-18T04:21:54.322Z,53.96
2022-12-18T04:26:57.158Z,58.31
2022-12-18T04:32:00.025Z,66.73
2022-12-18T04:37:03.217Z,62.83
2022-12-18T04:42:06.160Z,53.76
2022-12-18T04:47:08.991Z,58.25
2022-12-18T04:52:11.776Z,61.20
2022-12-18T04:57:14.769Z,69.38
2022-12-18T05:02:17.731Z,57.81
2022-12-18T05:07:20.715Z,55.89
2022-12-18T05:12:24.738Z,61.26
2022-12-18T05:17:27.533Z,68.80
2022-12-18T05:22:30.306Z,58.50
2022-12-18T05:27:33.213Z,56.74
2022-12-18T05:32:35.985Z,61.10
2022-12-18T05:37:42.945Z,69.21
2022-12-18T05:42:48.288Z,58.56
2022-12-18T05:47:51.052Z,56.27
2022-12-18T05:52:53.817Z,60.45
2022-12-18T05:57:56.610Z,65.02
2022-12-18T06:03:00.438Z,67.86
2022-12-18T06:08:03.427Z,55.54
2022-12-18T06:13:07.154Z,58.50
2022-12-18T06:18:10.052Z,63.84
2022-12-18T06:23:12.908Z,65.30
2022-12-18T06:28:15.692Z,56.10
2022-12-18T06:33:18.565Z,58.87
2022-12-18T06:38:21.389Z,66.23
2022-12-18T06:43:24.165Z,62.06
2022-12-18T06:48:26.986Z,55.02
2022-12-18T06:53:30.568Z,60.87
2022-12-18T06:58:34.158Z,65.76
2022-12-18T07:03:38.431Z,55.84
2022-12-18T07:08:41.549Z,59.05
2022-12-18T07:13:44.930Z,61.34
2022-12-18T07:18:48.151Z,69.54
2022-12-18T07:23:53.696Z,62.96
2022-12-18T07:28:59.800Z,54.51
2022-12-18T07:34:02.675Z,56.78
2022-12-18T07:39:05.642Z,65.08
2022-12-18T07:44:11.772Z,63.57
2022-12-18T07:49:14.741Z,55.79
2022-12-18T07:54:18.270Z,59.73
2022-12-18T07:59:21.091Z,66.11
2022-12-18T08:04:23.952Z,57.17
2022-12-18T08:09:29.058Z,57.30
2022-12-18T08:14:34.392Z,59.57
2022-12-18T08:19:37.156Z,65.29
2022-12-18T08:24:39.967Z,61.24
2022-12-18T08:29:44.291Z,53.68
2022-12-18T08:34:47.079Z,56.98
2022-12-18T08:39:50.032Z,62.90
2022-12-18T08:44:52.939Z,63.95
2022-12-18T08:49:55.943Z,53.36
2022-12-18T08:54:58.772Z,56.18
2022-12-18T09:00:01.597Z,61.30
2022-12-18T09:05:05.247Z,62.55
2022-12-18T09:10:08.568Z,54.31
2022-12-18T09:15:11.477Z,59.06
2022-12-18T09:20:14.325Z,62.43
2022-12-18T09:25:18.044Z,65.94
2022-12-18T09:30:21.164Z,55.45
2022-12-18T09:35:26.163Z,60.20
2022-12-18T09:40:37.398Z,61.30
2022-12-18T09:45:47.293Z,55.27
2022-12-18T09:50:52.691Z,60.06
2022-12-18T09:55:57.527Z,64.75
2022-12-18T10:01:00.689Z,53.76
2022-12-18T10:06:14.838Z,55.53
2022-12-18T10:11:26.922Z,57.21
2022-12-18T10:16:44.688Z,65.57
2022-12-18T10:22:11.701Z,55.75
2022-12-18T10:27:22.685Z,55.54
2022-12-18T10:32:31.984Z,58.62
2022-12-18T10:37:34.856Z,61.15
2022-12-18T10:42:39.456Z,67.88
2022-12-18T10:47:49.426Z,55.94
2022-12-18T10:53:00.520Z,54.71
2022-12-18T10:58:30.129Z,57.16
2022-12-18T11:03:39.128Z,65.93
2022-12-18T11:08:44.670Z,58.69
2022-12-18T11:14:12.750Z,53.65
2022-12-18T11:19:45.761Z,56.61
2022-12-18T11:25:34.505Z,59.54
2022-12-18T11:30:39.079Z,65.68
2022-12-18T11:35:58.614Z,61.73
2022-12-18T11:41:05.312Z,54.90
2022-12-18T11:46:24.202Z,58.40
2022-12-18T11:51:33.574Z,59.55
2022-12-18T11:56:38.153Z,65.43
2022-12-18T12:01:56.559Z,61.85
2022-12-18T12:07:20.873Z,54.79
2022-12-18T12:12:57.520Z,59.48
2022-12-18T12:18:16.160Z,60.92
2022-12-18T12:23:21.544Z,67.37
2022-12-18T12:28:53.852Z,63.16
2022-12-18T12:34:18.656Z,55.43
2022-12-18T12:39:31.670Z,58.02
2022-12-18T12:44:52.772Z,58.18
2022-12-18T12:50:02.911Z,60.82
2022-12-18T12:55:17.673Z,69.81
2022-12-18T13:00:21.374Z,61.98
2022-12-18T13:05:46.543Z,54.51
2022-12-18T13:11:11.415Z,58.92
2022-12-18T13:16:21.118Z,61.05
2022-12-18T13:21:31.595Z,68.08
2022-12-18T13:26:35.589Z,64.35
2022-12-18T13:31:42.287Z,54.40
2022-12-18T13:36:46.884Z,56.96
2022-12-18T13:41:53.599Z,61.05
2022-12-18T13:46:57.055Z,68.25
2022-12-18T13:52:00.221Z,60.53
2022-12-18T13:57:07.359Z,55.19
2022-12-18T14:02:13.249Z,58.93
2022-12-18T14:07:19.291Z,65.15
2022-12-18T14:12:44.810Z,63.19
2022-12-18T14:18:16.403Z,56.51
2022-12-18T14:23:46.176Z,60.66
2022-12-18T14:28:49.163Z,67.24
2022-12-18T14:33:53.281Z,63.02
2022-12-18T14:39:00.230Z,56.77
2022-12-18T14:44:07.467Z,59.18
2022-12-18T14:49:33.876Z,65.14
2022-12-18T14:54:38.550Z,64.14
2022-12-18T14:59:41.384Z,56.01
2022-12-18T15:04:45.143Z,58.37
2022-12-18T15:10:09.879Z,62.36
2022-12-18T15:15:38.645Z,69.56
2022-12-18T15:21:00.291Z,60.54
2022-12-18T15:26:04.932Z,55.78
2022-12-18T15:31:17.805Z,60.45
2022-12-18T15:36:26.798Z,67.92
2022-12-18T15:41:35.787Z,62.97
2022-12-18T15:46:39.125Z,56.40
2022-12-18T15:51:43.390Z,58.16
2022-12-18T15:57:05.988Z,65.58
2022-12-18T16:02:17.526Z,60.68
2022-12-18T16:07:24.889Z,56.01
2022-12-18T16:12:29.104Z,60.05
2022-12-18T16:17:32.248Z,67.48
2022-12-18T16:22:35.069Z,60.78
2022-12-18T16:27:37.901Z,54.84
2022-12-18T16:32:41.088Z,60.00
2022-12-18T16:37:46.341Z,67.16
2022-12-18T16:42:49.542Z,60.65
2022-12-18T16:47:54.619Z,54.51
2022-12-18T16:52:57.454Z,59.67
2022-12-18T16:58:00.255Z,66.35
2022-12-18T17:03:03.333Z,60.67
2022-12-18T17:08:06.581Z,56.56
2022-12-18T17:13:10.381Z,62.43
2022-12-18T17:18:13.173Z,65.71
2022-12-18T17:23:15.980Z,57.56
2022-12-18T17:28:20.525Z,58.22
2022-12-18T17:33:25.122Z,65.68
2022-12-18T17:38:27.907Z,61.23
2022-12-18T17:43:31.206Z,55.69
2022-12-18T17:48:34.144Z,61.81
2022-12-18T17:53:41.819Z,65.72
2022-12-18T17:58:45.148Z,55.63
2022-12-18T18:03:50.361Z,58.30
2022-12-18T18:08:57.667Z,65.96
2022-12-18T18:14:01.007Z,61.57
2022-12-18T18:19:09.632Z,55.38
2022-12-18T18:24:14.736Z,60.40
2022-12-18T18:29:20.326Z,66.22
2022-12-18T18:34:26.483Z,59.05
2022-12-18T18:39:29.778Z,52.84
2022-12-18T18:44:32.865Z,57.06
2022-12-18T18:49:35.698Z,60.56
2022-12-18T18:54:44.322Z,61.02
2022-12-18T18:59:55.031Z,69.79
2022-12-18T19:04:57.924Z,58.51
2022-12-18T19:10:04.189Z,54.33
2022-12-18T19:15:08.163Z,58.13
2022-12-18T19:20:12.398Z,59.13
2022-12-18T19:25:15.339Z,60.53
2022-12-18T19:30:18.505Z,67.93
2022-12-18T19:35:21.319Z,54.95
2022-12-18T19:40:25.186Z,48.49
2022-12-18T19:45:29.093Z,45.69
2022-12-18T19:50:32.169Z,43.40
2022-12-18T19:55:42.019Z,41.24
2022-12-18T20:00:48.095Z,40.53
2022-12-18T20:05:50.934Z,39.49
2022-12-18T20:10:54.149Z,38.80
2022-12-18T20:15:57.565Z,38.81
2022-12-18T20:21:05.504Z,40.00
2022-12-18T20:26:10.139Z,40.13
2022-12-18T20:31:14.158Z,40.00
2022-12-18T20:42:12.946Z,40.78
2022-12-18T20:47:16.212Z,40.39
2022-12-18T20:52:19.147Z,39.54
2022-12-18T20:57:23.206Z,38.93
2022-12-18T21:02:26.089Z,38.70
2022-12-18T21:07:29.189Z,38.52
2022-12-18T21:12:40.223Z,37.78
2022-12-18T21:17:51.110Z,37.61
2022-12-18T21:22:54.071Z,37.94
2022-12-18T21:28:00.287Z,38.24
2022-12-18T21:33:03.538Z,38.44
2022-12-18T21:38:06.385Z,37.86
2022-12-18T21:43:29.209Z,37.18
2022-12-18T21:48:32.142Z,37.12
2022-12-18T21:53:34.923Z,36.96
2022-12-18T21:58:37.671Z,36.79
2022-12-18T22:03:40.636Z,36.66
2022-12-18T22:08:44.111Z,36.64
2022-12-18T22:13:50.289Z,36.77
2022-12-18T22:18:53.769Z,36.59
2022-12-18T22:24:01.852Z,36.63
2022-12-18T22:29:24.557Z,36.36
2022-12-18T22:34:28.836Z,37.31
2022-12-18T22:39:33.147Z,37.56
2022-12-18T22:44:36.514Z,38.29
2022-12-18T22:49:39.679Z,37.98
2022-12-18T22:54:42.487Z,37.71
2022-12-18T22:59:45.365Z,37.25
2022-12-18T23:04:48.200Z,36.88
2022-12-18T23:09:51.377Z,36.80
2022-12-18T23:15:02.353Z,36.74
2022-12-18T23:20:07.249Z,36.46
2022-12-18T23:25:10.103Z,36.84
2022-12-18T23:30:13.454Z,37.05
2022-12-18T23:35:17.898Z,37.34
2022-12-18T23:40:20.700Z,37.66
2022-12-18T23:45:23.907Z,38.21
2022-12-18T23:50:29.457Z,38.10
2022-12-18T23:55:38.740Z,38.36
